Time;durP1;ratioP1;P1;durP2;ratioP2;P2;SDS_P1;SDS_P2;PMS_P1;PMS_P2;Temp;Humidity;BMP_temperature;BMP_pressure;BME280_temperature;BME280_humidity;BME280_pressure;Samples;Min_cycle;Max_cycle;Signal;HPM_P1;HPM_P2
2021/06/15 00:01:01;;;;;;;12.93;5.97;;;;;;;17.98;56.21;100971.31;4836243;59;1138882;-79
2021/06/15 00:06:07;;;;;;;12.13;6.17;;;;;;;17.95;56.13;100963.59;4917047;59;1140998;-80
2021/06/15 00:11:13;;;;;;;9.03;5.43;;;;;;;17.91;56.16;100959.88;4916989;59;1140832;-76
2021/06/15 00:16:19;;;;;;;14.10;6.13;;;;;;;17.84;56.24;100952.64;4913852;58;1138905;-78
2021/06/15 00:21:26;;;;;;;10.57;6.00;;;;;;;17.81;56.23;100956.46;4916841;59;1140873;-78
2021/06/15 00:26:32;;;;;;;12.53;5.77;;;;;;;17.78;56.30;100951.91;4916952;59;1141087;-78
2021/06/15 00:31:39;;;;;;;9.80;5.37;;;;;;;17.73;56.29;100951.52;4913866;59;1140961;-76
2021/06/15 00:36:45;;;;;;;12.15;5.95;;;;;;;17.67;56.42;100943.64;4917274;59;1139047;-77
2021/06/15 00:41:50;;;;;;;8.70;5.45;;;;;;;17.67;56.57;100938.78;4916899;59;1140914;-76
2021/06/15 00:46:56;;;;;;;11.33;7.17;;;;;;;17.68;56.66;100939.13;4913980;58;1138831;-80
2021/06/15 00:52:03;;;;;;;8.90;5.87;;;;;;;17.62;56.78;100943.22;4916737;59;1140946;-74
2021/06/15 00:57:12;;;;;;;11.70;6.47;;;;;;;17.60;56.96;100947.88;4916663;59;1138889;-76
2021/06/15 01:02:18;;;;;;;12.97;6.70;;;;;;;17.56;57.06;100947.87;4912635;58;1141178;-77
2021/06/15 01:07:42;;;;;;;9.47;5.77;;;;;;;17.53;57.15;100953.52;4986861;58;1140805;-77
2021/06/15 01:13:10;;;;;;;12.18;6.33;;;;;;;17.50;57.18;100940.45;4980887;58;1138813;-80
2021/06/15 01:18:25;;;;;;;9.40;6.37;;;;;;;17.52;57.36;100931.77;4986630;58;1141145;-77
2021/06/15 01:23:51;;;;;;;19.10;7.07;;;;;;;17.49;57.40;100925.39;4894139;59;1138760;-79
2021/06/15 01:29:17;;;;;;;13.18;6.50;;;;;;;17.39;57.47;100924.14;4834439;59;1141067;-79
2021/06/15 01:34:35;;;;;;;10.70;6.23;;;;;;;17.35;57.62;100932.61;4893453;59;1140454;-77
2021/06/15 01:40:02;;;;;;;14.97;7.17;;;;;;;17.30;57.73;100928.20;4862819;59;1140955;-75
2021/06/15 01:45:17;;;;;;;14.20;7.10;;;;;;;17.19;57.87;100927.45;4815457;59;1140475;-78
2021/06/15 01:50:31;;;;;;;11.37;6.67;;;;;;;17.15;58.14;100925.23;4986832;58;1140648;-77
2021/06/15 01:55:35;;;;;;;12.87;6.67;;;;;;;17.06;58.22;100925.65;4866280;59;1140609;-78
2021/06/15 02:00:44;;;;;;;11.07;6.33;;;;;;;17.01;58.47;100927.92;4861345;59;1140907;-79
2021/06/15 02:05:54;;;;;;;15.13;7.73;;;;;;;16.94;58.65;100928.20;4916935;59;1140760;-77
2021/06/15 02:11:02;;;;;;;13.13;7.27;;;;;;;16.90;58.88;100926.80;4916456;59;1140976;-79
2021/06/15 02:16:30;;;;;;;14.60;6.70;;;;;;;16.84;59.00;100924.72;4891640;59;1140838;-79
2021/06/15 02:21:39;;;;;;;14.80;7.17;;;;;;;16.83;59.10;100919.03;4926246;58;1140520;-75
2021/06/15 02:26:46;;;;;;;13.50;7.38;;;;;;;16.81;59.28;100913.83;4961115;58;1140994;-79
2021/06/15 02:31:58;;;;;;;15.13;7.53;;;;;;;16.78;59.33;100910.15;4960066;58;1141162;-76
2021/06/15 02:37:07;;;;;;;12.77;6.63;;;;;;;16.72;59.38;100915.23;4959788;58;1141080;-77
2021/06/15 02:42:17;;;;;;;9.97;5.73;;;;;;;16.69;59.45;100924.38;4956677;58;1140996;-78
2021/06/15 02:47:25;;;;;;;14.80;7.00;;;;;;;16.67;59.61;100918.84;4985181;58;1139040;-80
2021/06/15 02:52:53;;;;;;;10.77;6.77;;;;;;;16.65;59.67;100920.31;4916508;59;1140986;-76
2021/06/15 02:58:01;;;;;;;12.02;6.54;;;;;;;16.62;59.77;100926.44;4917244;59;1140893;-78
2021/06/15 03:03:08;;;;;;;12.43;6.87;;;;;;;16.59;59.84;100934.25;4911761;58;1140964;-77
2021/06/15 03:08:15;;;;;;;11.27;7.20;;;;;;;16.58;59.86;100927.22;4886318;59;1141174;-78
2021/06/15 03:13:45;;;;;;;15.70;8.07;;;;;;;16.54;60.04;100930.67;4886608;59;1140863;-75
2021/06/15 03:19:18;;;;;;;13.48;7.35;;;;;;;16.52;60.12;100927.80;4826339;60;1140883;-78
2021/06/15 03:24:28;;;;;;;13.87;7.40;;;;;;;16.49;60.28;100930.30;4886499;58;1140829;-78
2021/06/15 03:29:40;;;;;;;12.00;7.43;;;;;;;16.42;60.41;100931.86;4826334;60;1140607;-77
2021/06/15 03:34:53;;;;;;;9.34;6.92;;;;;;;16.35;60.74;100928.08;4810741;58;1140610;-76
2021/06/15 03:40:02;;;;;;;12.55;7.12;;;;;;;16.36;60.84;100926.25;4826520;59;1138499;-77
2021/06/15 03:45:09;;;;;;;11.93;6.47;;;;;;;16.38;60.91;100930.95;4886395;59;1140513;-75
2021/06/15 03:50:18;;;;;;;11.10;5.63;;;;;;;16.39;61.04;100925.95;4826032;59;1140503;-77
2021/06/15 03:55:29;;;;;;;9.43;6.90;;;;;;;16.43;61.19;100930.03;4886302;59;1140560;-76
2021/06/15 04:00:37;;;;;;;13.27;7.07;;;;;;;16.38;61.31;100929.13;4824322;60;1138579;-77
2021/06/15 04:05:44;;;;;;;11.47;6.27;;;;;;;16.43;61.29;100926.87;4867501;59;1140753;-77
2021/06/15 04:10:55;;;;;;;13.25;6.50;;;;;;;16.46;61.28;100924.40;4886235;59;1140764;-76
2021/06/15 04:16:02;;;;;;;12.65;7.33;;;;;;;16.49;61.15;100915.61;4825861;60;1140878;-77
2021/06/15 04:21:10;;;;;;;12.10;7.07;;;;;;;16.51;61.32;100919.44;4885804;59;1140529;-78
2021/06/15 04:26:16;;;;;;;9.87;6.77;;;;;;;16.56;61.45;100913.17;4886057;59;1140415;-79
2021/06/15 04:31:24;;;;;;;13.30;6.80;;;;;;;16.67;61.53;100922.84;4826145;59;1138698;-77
2021/06/15 04:36:35;;;;;;;12.60;6.43;;;;;;;16.73;61.44;100909.74;4885540;59;1140412;-76
2021/06/15 04:41:47;;;;;;;11.90;6.47;;;;;;;16.83;61.41;100917.69;4885976;59;1140486;-79
2021/06/15 04:47:00;;;;;;;15.23;7.07;;;;;;;16.87;61.33;100913.24;4825969;60;1140498;-78
2021/06/15 04:52:07;;;;;;;11.22;5.50;;;;;;;16.94;61.32;100901.97;4809908;58;1140416;-75
2021/06/15 04:57:17;;;;;;;18.10;6.50;;;;;;;17.05;61.31;100911.94;4825510;60;1140867;-79
2021/06/15 05:02:27;;;;;;;17.57;5.73;;;;;;;17.13;61.27;100919.19;4809764;58;1140877;-77
2021/06/15 05:07:33;;;;;;;12.00;6.93;;;;;;;17.21;61.19;100920.12;4824273;60;1140937;-79
2021/06/15 05:12:45;;;;;;;13.23;6.03;;;;;;;17.30;61.26;100914.84;4889500;58;1140579;-77
2021/06/15 05:17:53;;;;;;;11.07;5.47;;;;;;;17.45;61.21;100913.31;4994733;58;1140761;-79
2021/06/15 05:23:18;;;;;;;15.72;5.22;;;;;;;17.61;60.82;100920.63;4986564;58;1140637;-76
2021/06/15 05:28:24;;;;;;;12.47;5.87;;;;;;;17.75;60.73;100918.27;4986171;58;1140505;-79
2021/06/15 05:33:30;;;;;;;9.23;6.17;;;;;;;17.89;60.21;100916.38;4986762;58;1140654;-77
2021/06/15 05:38:37;;;;;;;10.23;6.27;;;;;;;18.05;60.39;100921.00;4987054;58;1138661;-78
2021/06/15 05:43:42;;;;;;;12.53;6.60;;;;;;;18.32;60.55;100920.51;4987047;58;1140692;-76
2021/06/15 05:48:49;;;;;;;13.04;6.16;;;;;;;18.47;59.76;100926.95;4957766;58;1140499;-78
2021/06/15 05:53:59;;;;;;;9.68;5.20;;;;;;;18.56;59.88;100924.13;4986806;58;1140546;-76
2021/06/15 05:59:04;;;;;;;10.60;5.93;;;;;;;18.69;59.89;100921.53;4986884;58;1138328;-79
2021/06/15 06:04:12;;;;;;;11.77;5.50;;;;;;;18.86;59.76;100917.41;4986751;58;1140476;-75
2021/06/15 06:09:18;;;;;;;11.80;6.00;;;;;;;19.06;59.41;100923.34;4999175;57;1140450;-77
2021/06/15 06:14:23;;;;;;;9.50;5.70;;;;;;;19.31;58.28;100922.87;5011618;57;1140445;-82
2021/06/15 06:19:30;;;;;;;12.37;5.17;;;;;;;19.52;57.43;100923.77;5011685;57;1138264;-85
2021/06/15 06:24:36;;;;;;;16.00;6.22;;;;;;;19.59;57.68;100928.78;5011830;57;1140400;-82
2021/06/15 06:29:43;;;;;;;10.87;5.33;;;;;;;19.71;57.85;100930.66;5011795;57;1140320;-85
2021/06/15 06:34:49;;;;;;;13.13;6.03;;;;;;;19.82;57.41;100933.83;5012817;57;1140560;-81
2021/06/15 06:39:55;;;;;;;9.43;5.03;;;;;;;19.94;57.41;100943.21;5012549;57;1140839;-80
2021/06/15 06:45:01;;;;;;;9.35;5.30;;;;;;;20.08;57.90;100942.18;5012440;57;1138463;-80
2021/06/15 06:50:09;;;;;;;14.75;5.92;;;;;;;20.21;57.54;100941.98;5012140;57;1138306;-81
2021/06/15 06:55:21;;;;;;;15.50;5.60;;;;;;;20.39;57.85;100932.91;5012159;57;1140571;-77
2021/06/15 07:00:26;;;;;;;15.40;5.30;;;;;;;20.55;56.47;100928.83;5012568;57;1140549;-78
2021/06/15 07:05:33;;;;;;;8.95;5.78;;;;;;;20.70;56.03;100923.05;5012382;57;1140603;-79
2021/06/15 07:10:38;;;;;;;8.35;4.95;;;;;;;20.81;56.20;100921.82;5001119;57;1138500;-80
2021/06/15 07:15:44;;;;;;;9.78;4.58;;;;;;;20.97;56.78;100908.29;4987486;58;1138421;-79
2021/06/15 07:20:50;;;;;;;16.48;5.28;;;;;;;21.12;56.25;100910.55;4987609;58;1138691;-78
2021/06/15 07:25:55;;;;;;;13.03;5.08;;;;;;;21.19;56.99;100907.53;4987358;58;1140644;-77
2021/06/15 07:31:02;;;;;;;21.07;5.50;;;;;;;21.28;56.81;100910.98;4987189;58;1140429;-81
2021/06/15 07:36:08;;;;;;;9.23;6.03;;;;;;;21.39;56.79;100910.55;4987036;58;1140452;-79
2021/06/15 07:41:14;;;;;;;9.93;5.35;;;;;;;21.59;56.68;100909.56;4987251;58;1138275;-78
2021/06/15 07:46:21;;;;;;;12.37;6.17;;;;;;;21.66;56.44;100905.15;4986659;58;1138485;-78
2021/06/15 07:51:26;;;;;;;9.13;4.33;;;;;;;21.72;56.36;100905.75;4986871;58;1140540;-76
2021/06/15 07:56:32;;;;;;;12.90;5.47;;;;;;;21.90;56.83;100903.56;4987161;58;1138477;-76
2021/06/15 08:01:38;;;;;;;9.98;4.80;;;;;;;22.13;56.65;100904.05;4987082;58;1140327;-79
2021/06/15 08:06:44;;;;;;;10.10;5.05;;;;;;;22.43;56.69;100907.92;4987115;58;1138318;-78
2021/06/15 08:11:50;;;;;;;9.25;4.75;;;;;;;22.61;55.42;100911.55;4996499;57;1140607;-80
2021/06/15 08:16:57;;;;;;;9.90;4.50;;;;;;;22.78;55.41;100916.25;5012069;57;1138375;-78
2021/06/15 08:22:03;;;;;;;16.00;4.35;;;;;;;22.98;54.84;100913.80;5012333;57;1138302;-79
2021/06/15 08:27:09;;;;;;;10.80;4.70;;;;;;;23.13;54.61;100911.90;5011637;57;1140349;-78
2021/06/15 08:32:15;;;;;;;14.20;4.55;;;;;;;23.31;54.17;100906.91;5011543;57;1140436;-78
2021/06/15 08:37:20;;;;;;;10.30;3.92;;;;;;;23.40;53.53;100904.90;5011585;57;1140376;-79
2021/06/15 08:42:26;;;;;;;12.50;4.50;;;;;;;23.49;53.38;100907.30;4999117;57;1140364;-79
2021/06/15 08:47:32;;;;;;;7.62;3.87;;;;;;;23.70;53.59;100904.27;5011741;57;1140537;-80
2021/06/15 08:52:39;;;;;;;11.60;4.60;;;;;;;23.97;52.62;100902.63;5011896;57;1139052;-82
2021/06/15 08:58:10;;;;;;;15.98;4.87;;;;;;;24.07;52.55;100888.23;5010713;57;1141006;-78
2021/06/15 09:03:16;;;;;;;7.17;3.93;;;;;;;24.17;52.46;100887.35;5012325;57;1140777;-84
2021/06/15 09:08:22;;;;;;;7.40;3.98;;;;;;;24.45;51.81;100890.03;5012006;57;1138751;-83
2021/06/15 09:13:42;;;;;;;8.18;4.03;;;;;;;24.70;51.31;100892.56;5003383;57;1138851;-86
2021/06/15 09:18:54;;;;;;;5.20;3.17;;;;;;;24.88;51.06;100879.83;4986725;58;1138993;-82
2021/06/15 09:24:17;;;;;;;4.12;3.02;;;;;;;25.09;49.83;100877.50;4987108;58;1138926;-87
2021/06/15 09:29:47;;;;;;;5.42;3.77;;;;;;;25.36;49.60;100881.91;4987157;57;1138545;-82
2021/06/15 09:35:09;;;;;;;11.14;3.76;;;;;;;25.37;48.35;100887.64;4987184;58;1138545;-82
2021/06/15 09:40:27;;;;;;;5.27;2.97;;;;;;;25.50;49.54;100877.36;4986908;57;1140909;-83
2021/06/15 09:45:48;;;;;;;5.05;3.27;;;;;;;25.66;46.00;100876.15;4986957;57;1138771;-84
2021/06/15 09:50:58;;;;;;;8.67;3.80;;;;;;;25.71;47.99;100885.81;4987020;58;1138700;-84
2021/06/15 09:56:07;;;;;;;5.35;2.83;;;;;;;25.87;47.92;100884.03;4986892;58;1138780;-83
2021/06/15 10:01:35;;;;;;;8.63;3.50;;;;;;;26.00;46.62;100872.34;4986953;57;1138987;-85
2021/06/15 10:06:51;;;;;;;5.05;3.20;;;;;;;26.21;47.70;100874.80;4987045;57;1138260;-81
2021/06/15 10:12:02;;;;;;;4.47;2.87;;;;;;;26.21;45.16;100874.28;4987503;58;1138396;-80
2021/06/15 10:17:09;;;;;;;8.70;3.62;;;;;;;26.13;45.17;100866.88;4978206;57;1138702;-80
2021/06/15 10:22:15;;;;;;;7.78;3.35;;;;;;;26.13;45.65;100862.81;4950775;58;1138401;-79
2021/06/15 10:27:22;;;;;;;14.45;3.27;;;;;;;26.28;45.56;100857.48;4975755;58;1138473;-82
2021/06/15 10:32:29;;;;;;;6.05;2.42;;;;;;;26.45;45.10;100862.44;4975656;58;1140907;-83
2021/06/15 10:37:39;;;;;;;5.03;2.70;;;;;;;26.56;43.80;100858.55;4975709;58;1138594;-79
2021/06/15 10:43:22;;;;;;;8.13;2.75;;;;;;;26.60;43.42;100858.41;4975872;58;1138602;-81
2021/06/15 10:48:32;;;;;;;10.72;2.87;;;;;;;26.58;43.67;100859.70;4975366;58;1138482;-78
2021/06/15 10:53:41;;;;;;;7.03;3.08;;;;;;;26.74;45.07;100857.81;4974974;58;1140928;-80
2021/06/15 10:58:54;;;;;;;6.58;2.87;;;;;;;26.96;43.74;100844.80;4975547;58;1138446;-80
2021/06/15 11:04:07;;;;;;;6.15;3.02;;;;;;;26.93;41.37;100851.98;4975576;58;1138861;-79
2021/06/15 11:09:17;;;;;;;7.28;3.90;;;;;;;26.66;43.21;100857.25;4931101;58;1138566;-80
2021/06/15 11:14:24;;;;;;;8.63;2.90;;;;;;;26.59;43.42;100858.62;4872870;59;1138537;-80
2021/06/15 11:19:40;;;;;;;6.17;2.12;;;;;;;26.73;43.66;100841.26;4939805;57;1138595;-79
2021/06/15 11:24:56;;;;;;;12.58;3.10;;;;;;;26.81;42.33;100841.52;4944010;57;1138679;-79
2021/06/15 11:30:15;;;;;;;10.28;3.30;;;;;;;26.89;43.61;100840.72;4921411;57;1140655;-79
2021/06/15 11:35:21;;;;;;;11.03;3.70;;;;;;;27.04;44.79;100829.59;4916477;58;1140594;-79
2021/06/15 11:40:36;;;;;;;9.73;2.95;;;;;;;26.94;44.03;100831.44;4930623;57;1140694;-79
2021/06/15 11:45:47;;;;;;;5.30;3.45;;;;;;;26.90;44.37;100837.48;4944410;58;1138651;-79
2021/06/15 11:50:55;;;;;;;6.23;3.33;;;;;;;26.79;44.01;100830.03;4859641;59;1138477;-80
2021/06/15 11:56:05;;;;;;;6.10;2.90;;;;;;;26.65;44.18;100837.42;4804352;60;1138846;-79
2021/06/15 12:01:14;;;;;;;5.42;3.17;;;;;;;26.52;43.96;100830.19;4940962;58;1138532;-80
2021/06/15 12:06:21;;;;;;;3.08;2.52;;;;;;;26.43;44.34;100838.80;4956220;57;1138286;-80
2021/06/15 12:11:27;;;;;;;4.83;2.50;;;;;;;26.60;45.89;100838.58;4972236;58;1138562;-80
2021/06/15 12:16:35;;;;;;;3.10;2.52;;;;;;;26.95;44.29;100826.84;4945647;58;1138497;-79
2021/06/15 12:21:43;;;;;;;3.72;2.70;;;;;;;27.20;43.35;100830.41;4890999;59;1138680;-80
2021/06/15 12:26:52;;;;;;;3.22;2.70;;;;;;;27.18;42.30;100827.11;4851089;59;1138784;-84
2021/06/15 12:31:58;;;;;;;11.78;3.37;;;;;;;26.98;42.51;100833.72;4889934;59;1138626;-80
2021/06/15 12:37:04;;;;;;;3.27;2.62;;;;;;;26.87;42.68;100824.37;4889063;59;1140579;-79
2021/06/15 12:42:16;;;;;;;4.00;3.08;;;;;;;26.78;42.42;100820.23;4837115;58;1138652;-80
2021/06/15 12:47:21;;;;;;;;;;;;;;;26.64;43.09;100826.25;4814413;59;1138977;-80
2021/06/15 12:52:38;;;;;;;5.95;3.15;;;;;;;26.58;43.27;100833.37;4833678;59;975977;-80
2021/06/15 12:57:57;;;;;;;9.85;4.20;;;;;;;26.41;44.44;100835.45;4843431;58;1136579;-81
2021/06/15 13:03:12;;;;;;;6.07;4.23;;;;;;;26.18;47.64;100832.67;4845885;58;1138896;-80
2021/06/15 13:08:18;;;;;;;7.83;4.45;;;;;;;26.15;48.92;100832.27;4865044;58;1138530;-80
2021/06/15 13:13:24;;;;;;;7.80;4.17;;;;;;;26.18;49.74;100829.13;4840737;59;1138544;-80
2021/06/15 13:18:30;;;;;;;8.45;4.78;;;;;;;26.28;49.66;100832.22;4826646;59;1138975;-81
2021/06/15 13:23:36;;;;;;;5.65;4.20;;;;;;;26.31;50.04;100834.53;4943514;57;1138668;-80
2021/06/15 13:28:42;;;;;;;5.92;4.22;;;;;;;26.27;49.93;100831.41;4898469;57;1138919;-82
2021/06/15 13:33:47;;;;;;;8.28;4.25;;;;;;;26.21;50.04;100828.71;4913337;57;1138763;-81
2021/06/15 13:38:55;;;;;;;7.05;4.67;;;;;;;26.15;50.34;100833.09;4900116;57;1138878;-82
2021/06/15 13:44:01;;;;;;;11.35;3.90;;;;;;;26.03;50.44;100828.03;4999469;57;1138797;-81
2021/06/15 13:49:07;;;;;;;10.00;4.78;;;;;;;26.06;50.66;100829.48;4971867;58;1141092;-81
2021/06/15 13:54:13;;;;;;;6.42;4.90;;;;;;;26.01;50.42;100830.11;4971600;58;1141169;-80
2021/06/15 13:59:19;;;;;;;6.10;4.65;;;;;;;25.91;50.18;100833.27;4971335;58;1138737;-79
2021/06/15 14:04:25;;;;;;;6.25;4.05;;;;;;;25.86;50.34;100835.77;4938246;57;1139029;-80
2021/06/15 14:09:30;;;;;;;5.17;4.28;;;;;;;25.79;50.83;100844.45;4897793;57;1138816;-80
2021/06/15 14:14:36;;;;;;;7.60;4.42;;;;;;;25.77;51.29;100855.19;4952089;57;1138808;-80
2021/06/15 14:19:42;;;;;;;10.90;5.08;;;;;;;25.59;52.23;100859.33;4971524;58;1138876;-83
2021/06/15 14:24:49;;;;;;;7.08;4.22;;;;;;;25.33;53.08;100866.09;5004837;57;1140890;-81
2021/06/15 14:29:56;;;;;;;6.20;4.40;;;;;;;25.28;53.46;100871.30;5005714;57;1138767;-83
2021/06/15 14:35:01;;;;;;;5.00;4.50;;;;;;;25.36;53.29;100867.56;5006174;57;1138808;-81
2021/06/15 14:40:09;;;;;;;11.97;5.65;;;;;;;25.45;54.09;100860.89;4984659;57;1138946;-79
2021/06/15 14:45:17;;;;;;;8.30;4.53;;;;;;;25.54;53.82;100871.30;4931179;58;1140940;-81
2021/06/15 14:50:23;;;;;;;8.55;4.47;;;;;;;25.52;53.32;100874.73;4931282;58;1138783;-82
2021/06/15 14:55:29;;;;;;;8.50;4.20;;;;;;;25.44;53.15;100873.59;4932721;58;1139035;-82
2021/06/15 15:00:35;;;;;;;7.40;4.33;;;;;;;25.35;53.14;100880.79;4931867;58;1138816;-82
2021/06/15 15:05:41;;;;;;;7.95;4.72;;;;;;;25.40;53.59;100881.81;4931990;58;1139008;-82
2021/06/15 15:10:47;;;;;;;11.73;3.83;;;;;;;25.48;53.17;100869.44;4931935;57;1138788;-81
2021/06/15 15:15:53;;;;;;;8.15;5.08;;;;;;;25.43;53.15;100875.99;4931675;57;1141075;-82
2021/06/15 15:20:59;;;;;;;11.05;5.12;;;;;;;25.37;53.11;100870.56;4931915;58;1138804;-82
2021/06/15 15:26:05;;;;;;;6.33;4.33;;;;;;;25.25;53.29;100873.05;4829985;59;1140979;-82
2021/06/15 15:31:11;;;;;;;6.25;4.83;;;;;;;25.20;53.69;100873.69;4818122;59;1138768;-82
2021/06/15 15:36:17;;;;;;;8.73;4.95;;;;;;;25.25;54.85;100866.28;4817848;60;1138488;-83
2021/06/15 15:41:32;;;;;;;6.40;4.83;;;;;;;25.37;55.15;100863.27;4819060;59;1138804;-85
2021/06/15 15:46:38;;;;;;;7.58;4.47;;;;;;;25.36;55.13;100863.50;4818244;59;1138763;-83
2021/06/15 15:51:45;;;;;;;4.85;3.77;;;;;;;25.22;55.32;100857.22;4818334;59;1138575;-84
2021/06/15 15:56:51;;;;;;;7.35;4.30;;;;;;;25.17;55.44;100856.50;4818504;59;1138453;-87
2021/06/15 16:01:57;;;;;;;11.35;4.20;;;;;;;25.12;55.90;100857.63;4818389;59;1138830;-84
2021/06/15 16:07:02;;;;;;;7.50;4.62;;;;;;;25.15;55.91;100856.39;4818116;59;1140800;-83
2021/06/15 16:12:09;;;;;;;7.67;4.40;;;;;;;25.09;55.35;100853.14;4818508;59;1138413;-85
2021/06/15 16:17:15;;;;;;;11.68;4.60;;;;;;;24.99;55.38;100860.31;4818024;59;1138295;-85
2021/06/15 16:22:22;;;;;;;6.30;4.67;;;;;;;24.87;55.50;100863.28;4817694;60;1140920;-87
2021/06/15 16:27:28;;;;;;;8.30;4.97;;;;;;;24.83;56.10;100861.48;4892468;58;1138413;-87
2021/06/15 16:32:34;;;;;;;6.78;4.95;;;;;;;24.68;57.21;100865.39;4908368;58;1138763;-85
2021/06/15 16:37:40;;;;;;;9.53;5.50;;;;;;;24.67;57.53;100863.20;4908166;58;1138305;-88
2021/06/15 16:42:49;;;;;;;11.35;6.85;;;;;;;24.71;57.55;100855.52;4908168;58;1138513;-85
2021/06/15 16:47:56;;;;;;;7.47;4.42;;;;;;;24.63;57.01;100864.64;4908185;58;1140572;-83
2021/06/15 16:53:02;;;;;;;8.50;5.06;;;;;;;24.59;57.22;100873.38;4908332;58;1139112;-83
2021/06/15 16:58:07;;;;;;;12.18;4.75;;;;;;;24.42;57.55;100876.94;4908243;58;1138419;-86
2021/06/15 17:03:15;;;;;;;10.13;4.67;;;;;;;24.27;57.88;100884.34;4908360;58;1140607;-84
2021/06/15 17:08:21;;;;;;;12.95;6.15;;;;;;;24.30;58.04;100887.45;4907813;58;1140694;-86
2021/06/15 17:13:27;;;;;;;8.73;5.28;;;;;;;24.28;58.07;100887.37;4907752;58;1141034;-85
2021/06/15 17:18:34;;;;;;;16.97;5.62;;;;;;;24.16;58.38;100898.68;4907948;58;1138309;-86
2021/06/15 17:23:41;;;;;;;13.78;6.55;;;;;;;23.98;58.63;100888.08;4907953;58;1140427;-83
2021/06/15 17:28:47;;;;;;;15.25;6.30;;;;;;;23.96;58.93;100897.73;4907692;58;1140346;-84
2021/06/15 17:33:54;;;;;;;10.10;4.75;;;;;;;23.94;58.91;100898.45;4907339;59;1141042;-82
2021/06/15 17:38:59;;;;;;;10.78;5.50;;;;;;;23.99;59.02;100904.07;4888531;59;1140887;-82
2021/06/15 17:44:06;;;;;;;9.28;4.45;;;;;;;23.92;58.89;100905.07;4907576;58;1141035;-84
2021/06/15 17:49:12;;;;;;;6.43;4.83;;;;;;;23.82;59.12;100905.42;4915261;58;1138729;-84
2021/06/15 17:54:18;;;;;;;6.53;4.87;;;;;;;23.91;59.36;100900.70;4944155;58;1138770;-85
2021/06/15 17:59:25;;;;;;;19.73;9.58;;;;;;;23.95;59.10;100897.41;4907584;58;1138777;-85
2021/06/15 18:04:45;;;;;;;10.88;6.08;;;;;;;23.91;58.57;100899.34;4923366;58;1140960;-83
2021/06/15 18:09:38;;;;;;;71.10;56.60;;;;;;;23.78;58.16;100910.89;4983508;57;1140524;-83
2021/06/15 18:14:50;;;;;;;162.47;131.80;;;;;;;23.64;57.82;100909.11;4986714;57;1142780;-84
2021/06/15 18:19:52;;;;;;;12.05;9.88;;;;;;;23.63;57.84;100895.28;4984974;57;1146735;-86
2021/06/15 18:24:58;;;;;;;11.12;8.68;;;;;;;23.60;57.67;100890.27;5006198;57;1140836;-85
2021/06/15 18:30:05;;;;;;;17.78;11.16;;;;;;;23.58;57.78;100889.62;4987416;57;1140630;-84
2021/06/15 18:35:13;;;;;;;12.13;7.00;;;;;;;23.52;57.75;100899.88;4987332;57;1142952;-82
2021/06/15 18:40:19;;;;;;;9.58;7.92;;;;;;;23.47;58.24;100899.06;4987217;57;1140470;-83
2021/06/15 18:45:26;;;;;;;14.85;8.78;;;;;;;23.30;58.06;100898.48;4987462;58;1138744;-85
2021/06/15 18:50:33;;;;;;;15.98;6.25;;;;;;;23.18;58.37;100893.80;4985163;57;1140841;-83
2021/06/15 18:55:38;;;;;;;139.10;84.62;;;;;;;23.11;58.68;100898.59;4987427;58;1140883;-83
2021/06/15 19:00:44;;;;;;;53.90;33.08;;;;;;;23.04;58.69;100909.84;4987107;58;1145206;-85
2021/06/15 19:05:50;;;;;;;31.45;20.37;;;;;;;22.96;58.71;100909.11;4986833;58;1142940;-81
2021/06/15 19:10:56;;;;;;;16.12;8.95;;;;;;;22.85;58.88;100912.30;4986894;58;1143005;-81
2021/06/15 19:16:02;;;;;;;12.40;6.35;;;;;;;22.84;59.24;100911.47;4987464;58;1141098;-82
2021/06/15 19:21:11;;;;;;;250.03;136.18;;;;;;;22.74;59.15;100917.14;4987119;58;1140886;-81
2021/06/15 19:26:26;;;;;;;38.67;16.50;;;;;;;22.63;59.53;100925.68;4986911;58;1147145;-81
2021/06/15 19:31:32;;;;;;;26.20;14.87;;;;;;;22.61;59.85;100922.33;5003439;57;1143049;-84
2021/06/15 19:36:38;;;;;;;15.05;10.90;;;;;;;22.62;60.10;100919.97;5009777;57;1143008;-83
2021/06/15 19:41:44;;;;;;;17.48;10.15;;;;;;;22.65;60.22;100930.38;5009806;57;1142847;-83
2021/06/15 19:46:50;;;;;;;39.60;21.52;;;;;;;22.62;60.42;100934.80;5009937;57;1142950;-84
2021/06/15 19:51:56;;;;;;;27.87;17.55;;;;;;;22.64;60.50;100931.41;5009512;57;1142859;-87
2021/06/15 19:57:01;;;;;;;8.70;5.78;;;;;;;22.63;60.63;100932.94;4990804;57;1142922;-83
2021/06/15 20:02:08;;;;;;;7.75;6.33;;;;;;;22.51;60.18;100941.17;5010169;57;1138754;-86
2021/06/15 20:07:14;;;;;;;6.80;5.33;;;;;;;22.35;60.19;100951.12;5009833;57;1138828;-87
2021/06/15 20:12:20;;;;;;;12.25;7.40;;;;;;;22.30;60.58;100939.23;5009734;57;1138779;-82
2021/06/15 20:17:26;;;;;;;9.78;5.75;;;;;;;22.25;60.71;100949.22;5009824;57;1140890;-81
2021/06/15 20:22:32;;;;;;;11.30;6.30;;;;;;;22.18;60.58;100953.66;5009635;57;1138784;-84
2021/06/15 20:27:39;;;;;;;8.90;7.10;;;;;;;22.12;60.66;100956.26;5009224;57;1141065;-83
2021/06/15 20:32:46;;;;;;;7.12;5.47;;;;;;;21.91;60.12;100960.95;5009588;57;1138930;-82
2021/06/15 20:37:52;;;;;;;8.80;4.85;;;;;;;21.63;60.41;100976.33;5009939;57;1138750;-80
2021/06/15 20:42:57;;;;;;;10.98;3.67;;;;;;;21.58;60.66;100973.84;5009697;57;1138978;-81
2021/06/15 20:48:03;;;;;;;11.97;3.58;;;;;;;21.56;60.60;100974.02;5009804;57;1140876;-80
2021/06/15 20:53:09;;;;;;;7.47;3.08;;;;;;;21.52;60.20;100976.77;5010013;57;1142253;-83
2021/06/15 20:58:15;;;;;;;6.12;2.47;;;;;;;21.41;59.93;100986.06;5009833;57;1138791;-82
2021/06/15 21:03:21;;;;;;;7.25;3.22;;;;;;;21.24;59.60;100999.28;5009792;57;1138829;-80
2021/06/15 21:08:26;;;;;;;4.28;2.90;;;;;;;21.08;59.33;101006.08;5009901;57;1139266;-79
2021/06/15 21:13:32;;;;;;;3.72;2.40;;;;;;;20.92;58.60;101005.64;4906608;59;1138842;-82
2021/06/15 21:18:38;;;;;;;5.58;1.50;;;;;;;20.74;57.75;101009.06;4906402;59;1138313;-82
2021/06/15 21:23:44;;;;;;;5.25;1.62;;;;;;;20.62;56.88;101009.91;4833792;59;1138628;-79
2021/06/15 21:28:51;;;;;;;6.40;1.85;;;;;;;20.51;56.21;101012.98;4906495;59;1138591;-79
2021/06/15 21:33:58;;;;;;;6.12;2.20;;;;;;;20.39;56.08;101025.09;4910810;59;1138776;-81
2021/06/15 21:39:06;;;;;;;5.28;2.08;;;;;;;20.34;55.93;101027.41;4915845;59;1138930;-80
2021/06/15 21:44:12;;;;;;;3.80;1.90;;;;;;;20.18;55.26;101035.48;4864929;59;1138692;-81
2021/06/15 21:49:19;;;;;;;4.85;1.30;;;;;;;20.02;54.79;101035.82;4915986;59;1138524;-82
2021/06/15 21:54:26;;;;;;;2.70;1.25;;;;;;;19.89;54.33;101041.36;4915796;59;1138488;-80
2021/06/15 21:59:38;;;;;;;3.45;1.80;;;;;;;19.76;54.04;101061.14;4865176;59;1138300;-81
2021/06/15 22:04:44;;;;;;;2.52;1.47;;;;;;;19.60;53.52;101056.58;4918349;59;1138738;-80
2021/06/15 22:09:50;;;;;;;3.80;1.90;;;;;;;19.45;53.18;101063.55;4918340;59;1138835;-81
2021/06/15 22:14:56;;;;;;;2.08;1.40;;;;;;;19.33;53.22;101059.00;4867526;59;1138470;-80
2021/06/15 22:20:02;;;;;;;3.62;1.52;;;;;;;19.31;53.16;101065.02;4918504;59;1138278;-81
2021/06/15 22:25:08;;;;;;;4.28;1.88;;;;;;;19.25;52.87;101071.86;4918807;59;1138467;-79
2021/06/15 22:30:17;;;;;;;2.73;1.60;;;;;;;19.19;53.08;101065.82;4867814;59;1141896;-79
2021/06/15 22:35:27;;;;;;;5.15;2.15;;;;;;;19.16;52.73;101076.86;4905413;59;1138489;-81
2021/06/15 22:40:33;;;;;;;2.67;1.60;;;;;;;19.11;52.71;101080.52;4826464;60;1138799;-80
2021/06/15 22:45:39;;;;;;;3.20;1.57;;;;;;;19.04;52.60;101072.79;4886806;59;1138273;-81
2021/06/15 22:50:46;;;;;;;1.85;1.20;;;;;;;18.98;52.60;101070.73;4886833;59;1138448;-79
2021/06/15 22:55:53;;;;;;;3.80;1.25;;;;;;;18.87;52.61;101075.88;4826563;60;1138306;-81
2021/06/15 23:00:59;;;;;;;7.00;1.55;;;;;;;18.82;52.70;101078.69;4886679;59;1138808;-80
2021/06/15 23:06:05;;;;;;;2.22;1.30;;;;;;;18.71;52.70;101077.13;4886991;59;1138792;-80
2021/06/15 23:11:12;;;;;;;4.33;1.30;;;;;;;18.71;52.86;101091.86;4826529;59;1138813;-79